createdAt,value
2024-01-24T00:00:16.910Z,5.90
2024-01-24T00:01:16.985Z,5.90
2024-01-24T00:02:16.931Z,5.93
2024-01-24T00:03:17.043Z,5.94
2024-01-24T00:04:16.895Z,5.94
2024-01-24T00:05:16.895Z,5.96
2024-01-24T00:06:16.924Z,5.99
2024-01-24T00:07:17.049Z,6.00
2024-01-24T00:08:16.964Z,6.00
2024-01-24T00:09:16.880Z,5.97
2024-01-24T00:10:16.901Z,5.97
2024-01-24T00:11:16.843Z,5.99
2024-01-24T00:12:16.973Z,6.01
2024-01-24T00:13:16.797Z,6.01
2024-01-24T00:14:16.828Z,6.03
2024-01-24T00:15:16.871Z,6.03
2024-01-24T00:16:16.812Z,6.03
2024-01-24T00:17:16.875Z,6.03
2024-01-24T00:18:16.897Z,6.01
2024-01-24T00:19:16.876Z,6.00
2024-01-24T00:20:16.745Z,5.99
2024-01-24T00:21:16.772Z,5.99
2024-01-24T00:22:16.743Z,5.99
2024-01-24T00:23:16.701Z,5.99
2024-01-24T00:24:16.832Z,5.99
2024-01-24T00:25:16.661Z,5.99
2024-01-24T00:26:16.705Z,5.97
2024-01-24T00:27:16.836Z,5.97
2024-01-24T00:28:16.694Z,5.97
2024-01-24T00:29:16.680Z,5.97
2024-01-24T00:30:16.678Z,5.99
2024-01-24T00:31:16.699Z,5.99
2024-01-24T00:32:16.702Z,5.96
2024-01-24T00:33:16.633Z,5.97
2024-01-24T00:34:16.620Z,5.97
2024-01-24T00:35:16.592Z,5.94
2024-01-24T00:36:16.680Z,5.96
2024-01-24T00:37:16.607Z,5.94
2024-01-24T00:38:16.599Z,5.93
2024-01-24T00:39:16.686Z,5.93
2024-01-24T00:40:16.559Z,5.94
2024-01-24T00:41:16.617Z,5.96
2024-01-24T00:42:16.628Z,5.96
2024-01-24T00:43:16.577Z,5.96
2024-01-24T00:44:16.557Z,5.97
2024-01-24T00:45:16.589Z,5.97
2024-01-24T00:46:16.694Z,5.99
2024-01-24T00:47:16.486Z,5.99
2024-01-24T00:48:16.571Z,5.99
2024-01-24T00:49:16.540Z,5.99
2024-01-24T00:50:16.563Z,5.99
2024-01-24T00:51:16.577Z,6.03
2024-01-24T00:52:16.403Z,6.03
2024-01-24T00:53:16.446Z,6.01
2024-01-24T00:54:16.494Z,6.03
2024-01-24T00:55:16.438Z,6.03
2024-01-24T00:56:16.530Z,6.04
2024-01-24T00:57:16.454Z,6.03
2024-01-24T00:58:16.454Z,6.01
2024-01-24T00:59:16.455Z,6.01
2024-01-24T01:00:16.424Z,6.01
2024-01-24T01:01:16.465Z,6.00
2024-01-24T01:02:16.341Z,6.01
2024-01-24T01:03:16.420Z,6.03
2024-01-24T01:04:16.431Z,6.00
2024-01-24T01:05:16.421Z,6.00
2024-01-24T01:06:16.410Z,5.99
2024-01-24T01:07:16.311Z,6.00
2024-01-24T01:08:16.346Z,5.99
2024-01-24T01:09:16.291Z,6.00
2024-01-24T01:10:16.276Z,6.00
2024-01-24T01:11:16.391Z,6.00
2024-01-24T01:12:16.387Z,6.00
2024-01-24T01:13:16.299Z,6.01
2024-01-24T01:14:16.235Z,6.01
2024-01-24T01:15:16.315Z,6.00
2024-01-24T01:16:16.334Z,6.00
2024-01-24T01:17:16.245Z,5.99
2024-01-24T01:18:16.234Z,5.99
2024-01-24T01:19:16.359Z,5.99
2024-01-24T01:20:16.112Z,6.01
2024-01-24T01:21:16.285Z,6.01
2024-01-24T01:22:16.318Z,6.00
2024-01-24T01:23:16.172Z,6.03
2024-01-24T01:24:16.228Z,6.04
2024-01-24T01:25:16.125Z,6.08
2024-01-24T01:26:16.172Z,6.09
2024-01-24T01:27:16.241Z,6.12
2024-01-24T01:28:16.126Z,6.15
2024-01-24T01:29:16.133Z,6.18
2024-01-24T01:30:16.206Z,6.19
2024-01-24T01:31:16.149Z,6.18
2024-01-24T01:32:16.036Z,6.18
2024-01-24T01:33:16.206Z,6.19
2024-01-24T01:34:16.181Z,6.21
2024-01-24T01:35:16.164Z,6.21
2024-01-24T01:36:22.828Z,6.21
2024-01-24T01:37:16.204Z,6.19
2024-01-24T01:38:16.143Z,6.22
2024-01-24T01:39:16.110Z,6.22
2024-01-24T01:40:16.031Z,6.25
2024-01-24T01:41:16.128Z,6.27
2024-01-24T01:42:16.093Z,6.25
2024-01-24T01:43:15.948Z,6.28
2024-01-24T01:44:15.950Z,6.27
2024-01-24T01:45:16.153Z,6.25
2024-01-24T01:46:15.995Z,6.22
2024-01-24T01:47:15.964Z,6.21
2024-01-24T01:48:16.033Z,6.21
2024-01-24T01:49:16.093Z,6.19
2024-01-24T01:50:15.941Z,6.18
2024-01-24T01:51:16.001Z,6.19
2024-01-24T01:52:15.883Z,6.18
2024-01-24T01:53:15.894Z,6.15
2024-01-24T01:54:15.929Z,6.15
2024-01-24T01:55:15.841Z,6.11
2024-01-24T01:56:15.976Z,6.08
2024-01-24T01:57:15.914Z,6.06
2024-01-24T01:58:15.863Z,6.00
2024-01-24T01:59:15.791Z,5.97
2024-01-24T02:00:15.862Z,5.94
2024-01-24T02:01:16.073Z,5.93
2024-01-24T02:02:15.760Z,5.89
2024-01-24T02:03:15.878Z,5.83
2024-01-24T02:04:15.796Z,5.82
2024-01-24T02:05:15.873Z,5.81
2024-01-24T02:06:15.874Z,5.76
2024-01-24T02:07:15.814Z,5.76
2024-01-24T02:08:15.705Z,5.75
2024-01-24T02:09:15.797Z,5.72
2024-01-24T02:10:15.785Z,5.71
2024-01-24T02:11:15.705Z,5.64
2024-01-24T02:12:15.777Z,5.64
2024-01-24T02:13:15.658Z,5.60
2024-01-24T02:14:15.684Z,5.57
2024-01-24T02:15:15.727Z,5.54
2024-01-24T02:16:18.997Z,5.53
2024-01-24T02:17:15.676Z,5.49
2024-01-24T02:18:15.817Z,5.48
2024-01-24T02:19:15.688Z,5.48
2024-01-24T02:20:15.687Z,5.46
2024-01-24T02:21:15.641Z,5.45
2024-01-24T02:22:15.481Z,5.43
2024-01-24T02:23:15.597Z,5.43
2024-01-24T02:24:15.608Z,5.40
2024-01-24T02:25:15.607Z,5.40
2024-01-24T02:26:15.633Z,5.39
2024-01-24T02:27:15.541Z,5.38
2024-01-24T02:28:15.525Z,5.35
2024-01-24T02:29:15.605Z,5.31
2024-01-24T02:30:15.603Z,5.33
2024-01-24T02:31:15.463Z,5.30
2024-01-24T02:32:15.522Z,5.25
2024-01-24T02:33:15.683Z,5.24
2024-01-24T02:34:15.609Z,5.21
2024-01-24T02:35:15.569Z,5.21
2024-01-24T02:36:15.512Z,5.20
2024-01-24T02:37:15.483Z,5.17
2024-01-24T02:38:15.472Z,5.15
2024-01-24T02:39:15.445Z,5.15
2024-01-24T02:40:15.504Z,5.13
2024-01-24T02:41:15.365Z,5.13
2024-01-24T02:42:15.495Z,5.12
2024-01-24T02:43:15.339Z,5.12
2024-01-24T02:44:15.364Z,5.12
2024-01-24T02:45:15.492Z,5.13
2024-01-24T02:46:15.428Z,5.10
2024-01-24T02:47:15.356Z,5.09
2024-01-24T02:48:15.579Z,5.06
2024-01-24T02:49:15.415Z,5.06
2024-01-24T02:50:15.411Z,5.04
2024-01-24T02:51:15.386Z,5.03
2024-01-24T02:52:16.140Z,4.99
2024-01-24T02:53:15.252Z,4.97
2024-01-24T02:54:15.339Z,4.97
2024-01-24T02:55:15.409Z,4.94
2024-01-24T02:56:15.286Z,4.94
2024-01-24T02:57:15.230Z,4.92
2024-01-24T02:58:15.271Z,4.89
2024-01-24T02:59:15.363Z,4.91
2024-01-24T03:00:15.291Z,4.88
2024-01-24T03:01:15.246Z,4.88
2024-01-24T03:02:15.192Z,4.85
2024-01-24T03:03:15.205Z,4.85
2024-01-24T03:04:15.373Z,4.85
2024-01-24T03:05:15.176Z,4.84
2024-01-24T03:06:15.320Z,4.84
2024-01-24T03:07:15.241Z,4.84
2024-01-24T03:08:15.157Z,4.84
2024-01-24T03:09:15.253Z,4.84
2024-01-24T03:10:15.187Z,4.84
2024-01-24T03:11:15.170Z,4.84
2024-01-24T03:12:15.127Z,4.82
2024-01-24T03:13:15.193Z,4.84
2024-01-24T03:14:15.142Z,4.84
2024-01-24T03:15:15.136Z,4.84
2024-01-24T03:16:15.066Z,4.80
2024-01-24T03:17:15.028Z,4.78
2024-01-24T03:18:15.078Z,4.77
2024-01-24T03:19:15.305Z,4.75
2024-01-24T03:20:14.996Z,4.75
2024-01-24T03:21:14.992Z,4.75
2024-01-24T03:22:15.037Z,4.75
2024-01-24T03:23:15.030Z,4.70
2024-01-24T03:24:15.032Z,4.72
2024-01-24T03:25:14.997Z,4.73
2024-01-24T03:26:15.047Z,4.73
2024-01-24T03:27:14.959Z,4.73
2024-01-24T03:28:14.942Z,4.72
2024-01-24T03:29:14.960Z,4.69
2024-01-24T03:30:14.976Z,4.69
2024-01-24T03:31:14.983Z,4.67
2024-01-24T03:32:14.893Z,4.67
2024-01-24T03:33:14.967Z,4.69
2024-01-24T03:34:15.198Z,4.69
2024-01-24T03:35:14.862Z,4.67
2024-01-24T03:36:14.880Z,4.66
2024-01-24T03:37:14.902Z,4.63
2024-01-24T03:38:14.840Z,4.63
2024-01-24T03:39:14.935Z,4.65
2024-01-24T03:40:14.896Z,4.65
2024-01-24T03:41:14.757Z,4.67
2024-01-24T03:42:14.871Z,4.65
2024-01-24T03:43:14.790Z,4.65
2024-01-24T03:44:14.870Z,4.65
2024-01-24T03:45:14.813Z,4.62
2024-01-24T03:46:14.749Z,4.60
2024-01-24T03:47:14.821Z,4.59
2024-01-24T03:48:14.969Z,4.59
2024-01-24T03:49:14.874Z,4.55
2024-01-24T03:50:14.827Z,4.54
2024-01-24T03:51:14.715Z,4.54
2024-01-24T03:52:14.699Z,4.51
2024-01-24T03:53:14.744Z,4.52
2024-01-24T03:54:14.729Z,4.52
2024-01-24T03:55:14.675Z,4.51
2024-01-24T03:56:14.675Z,4.48
2024-01-24T03:57:14.711Z,4.48
2024-01-24T03:58:14.732Z,4.47
2024-01-24T03:59:14.681Z,4.45
2024-01-24T04:00:14.745Z,4.44
2024-01-24T04:01:14.734Z,4.44
2024-01-24T04:02:14.724Z,4.44
2024-01-24T04:03:14.745Z,4.42
2024-01-24T04:04:14.647Z,4.44
2024-01-24T04:05:14.591Z,4.42
2024-01-24T04:06:14.731Z,4.41
2024-01-24T04:07:14.677Z,4.40
2024-01-24T04:08:14.526Z,4.41
2024-01-24T04:09:14.624Z,4.40
2024-01-24T04:10:14.560Z,4.37
2024-01-24T04:11:14.577Z,4.36
2024-01-24T04:12:14.664Z,4.33
2024-01-24T04:13:14.490Z,4.33
2024-01-24T04:14:14.528Z,4.32
2024-01-24T04:15:14.603Z,4.32
2024-01-24T04:16:14.471Z,4.32
2024-01-24T04:17:14.543Z,4.32
2024-01-24T04:18:14.645Z,4.32
2024-01-24T04:19:14.503Z,4.29
2024-01-24T04:20:14.471Z,4.32
2024-01-24T04:21:14.502Z,4.30
2024-01-24T04:22:14.477Z,4.33
2024-01-24T04:23:14.312Z,4.32
2024-01-24T04:24:14.483Z,4.32
2024-01-24T04:25:14.431Z,4.34
2024-01-24T04:26:14.470Z,4.33
2024-01-24T04:27:14.325Z,4.33
2024-01-24T04:28:14.347Z,4.34
2024-01-24T04:29:14.309Z,4.36
2024-01-24T04:30:14.407Z,4.37
2024-01-24T04:31:14.387Z,4.36
2024-01-24T04:32:14.389Z,4.36
2024-01-24T04:33:14.378Z,4.36
2024-01-24T04:34:14.369Z,4.36
2024-01-24T04:35:14.375Z,4.36
2024-01-24T04:36:14.393Z,4.36
2024-01-24T04:37:14.266Z,4.34
2024-01-24T04:38:14.259Z,4.33
2024-01-24T04:39:14.300Z,4.33
2024-01-24T04:40:14.400Z,4.34
2024-01-24T04:41:14.322Z,4.33
2024-01-24T04:42:16.917Z,4.36
2024-01-24T04:43:14.231Z,4.37
2024-01-24T04:44:14.221Z,4.32
2024-01-24T04:45:14.207Z,4.30
2024-01-24T04:46:14.281Z,4.30
2024-01-24T04:47:14.275Z,4.26
2024-01-24T04:48:14.303Z,4.24
2024-01-24T04:49:26.157Z,4.24
2024-01-24T04:50:14.429Z,4.22
2024-01-24T04:51:14.276Z,4.18
2024-01-24T04:52:14.187Z,4.16
2024-01-24T04:53:14.141Z,4.12
2024-01-24T04:54:14.220Z,4.11
2024-01-24T04:55:14.251Z,4.11
2024-01-24T04:56:14.191Z,4.09
2024-01-24T04:57:14.253Z,4.09
2024-01-24T04:58:14.196Z,4.11
2024-01-24T04:59:14.048Z,4.14
2024-01-24T05:00:14.400Z,4.12
2024-01-24T05:01:14.158Z,4.12
2024-01-24T05:02:14.074Z,4.12
2024-01-24T05:03:14.093Z,4.14
2024-01-24T05:04:14.163Z,4.14
2024-01-24T05:05:14.097Z,4.14
2024-01-24T05:06:14.071Z,4.14
2024-01-24T05:07:14.059Z,4.14
2024-01-24T05:08:14.012Z,4.11
2024-01-24T05:09:14.111Z,4.09
2024-01-24T05:10:13.960Z,4.08
2024-01-24T05:11:13.949Z,4.08
2024-01-24T05:12:14.086Z,4.08
2024-01-24T05:13:13.973Z,4.08
2024-01-24T05:14:13.989Z,4.09
2024-01-24T05:15:13.964Z,4.11
2024-01-24T05:16:13.925Z,4.12
2024-01-24T05:17:13.883Z,4.15
2024-01-24T05:18:14.027Z,4.15
2024-01-24T05:19:14.059Z,4.15
2024-01-24T05:20:13.926Z,4.15
2024-01-24T05:21:13.905Z,4.14
2024-01-24T05:22:13.824Z,4.14
2024-01-24T05:23:13.826Z,4.15
2024-01-24T05:24:13.904Z,4.12
2024-01-24T05:25:13.801Z,4.12
2024-01-24T05:26:13.890Z,4.14
2024-01-24T05:27:13.876Z,4.12
2024-01-24T05:28:13.940Z,4.12
2024-01-24T05:29:13.862Z,4.12
2024-01-24T05:30:20.276Z,4.09
2024-01-24T05:31:13.766Z,4.09
2024-01-24T05:32:13.649Z,4.11
2024-01-24T05:33:13.935Z,4.08
2024-01-24T05:34:13.832Z,4.05
2024-01-24T05:35:13.702Z,4.08
2024-01-24T05:36:13.737Z,4.02
2024-01-24T05:37:13.725Z,4.02
2024-01-24T05:38:13.710Z,4.02
2024-01-24T05:39:13.705Z,4.05
2024-01-24T05:40:13.655Z,4.04
2024-01-24T05:41:13.647Z,4.05
2024-01-24T05:42:13.768Z,4.08
2024-01-24T05:43:13.792Z,4.09
2024-01-24T05:44:13.638Z,4.09
2024-01-24T05:45:13.711Z,4.09
2024-01-24T05:46:13.612Z,4.05
2024-01-24T05:47:13.550Z,4.05
2024-01-24T05:48:13.848Z,4.06
2024-01-24T05:49:13.745Z,4.05
2024-01-24T05:50:13.583Z,4.05
2024-01-24T05:51:13.598Z,4.05
2024-01-24T05:52:13.623Z,4.02
2024-01-24T05:53:13.640Z,4.02
2024-01-24T05:54:13.560Z,3.98
2024-01-24T05:55:13.788Z,4.00
2024-01-24T05:56:13.504Z,3.98
2024-01-24T05:57:13.629Z,4.00
2024-01-24T05:58:13.569Z,4.00
2024-01-24T05:59:15.565Z,3.98
2024-01-24T06:00:13.573Z,4.00
2024-01-24T06:01:13.632Z,3.98
2024-01-24T06:02:13.584Z,3.96
2024-01-24T06:03:13.535Z,3.93
2024-01-24T06:04:13.576Z,3.90
2024-01-24T06:05:13.737Z,3.88
2024-01-24T06:06:13.550Z,3.83
2024-01-24T06:07:13.632Z,3.79
2024-01-24T06:08:13.389Z,3.76
2024-01-24T06:09:13.532Z,3.78
2024-01-24T06:10:13.371Z,3.79
2024-01-24T06:11:13.353Z,3.79
2024-01-24T06:12:13.488Z,3.79
2024-01-24T06:13:13.338Z,3.80
2024-01-24T06:14:13.356Z,3.83
2024-01-24T06:15:13.470Z,3.83
2024-01-24T06:16:13.335Z,3.87
2024-01-24T06:17:13.437Z,3.88
2024-01-24T06:18:13.316Z,3.90
2024-01-24T06:19:13.398Z,3.88
2024-01-24T06:20:13.326Z,3.90
2024-01-24T06:21:13.356Z,3.90
2024-01-24T06:22:13.315Z,3.91
2024-01-24T06:23:13.237Z,3.91
2024-01-24T06:24:13.257Z,3.90
2024-01-24T06:25:13.284Z,3.93
2024-01-24T06:26:13.288Z,3.91
2024-01-24T06:27:13.254Z,3.91
2024-01-24T06:28:13.202Z,3.93
2024-01-24T06:29:13.188Z,3.91
2024-01-24T06:30:20.091Z,3.93
2024-01-24T06:31:13.268Z,3.90
2024-01-24T06:32:13.108Z,3.91
2024-01-24T06:33:13.132Z,3.90
2024-01-24T06:34:13.169Z,3.90
2024-01-24T06:35:13.095Z,3.90
2024-01-24T06:36:13.180Z,3.91
2024-01-24T06:37:13.127Z,3.87
2024-01-24T06:38:13.071Z,3.87
2024-01-24T06:39:13.040Z,3.86
2024-01-24T06:40:13.149Z,3.79
2024-01-24T06:41:13.089Z,3.76
2024-01-24T06:42:13.013Z,3.76
2024-01-24T06:43:13.107Z,3.73
2024-01-24T06:44:13.002Z,3.70
2024-01-24T06:45:13.093Z,3.70
2024-01-24T06:46:13.031Z,3.69
2024-01-24T06:47:12.972Z,3.66
2024-01-24T06:48:13.002Z,3.69
2024-01-24T06:49:13.030Z,3.69
2024-01-24T06:50:13.024Z,3.69
2024-01-24T06:51:12.943Z,3.70
2024-01-24T06:52:12.978Z,3.76
2024-01-24T06:53:12.901Z,3.79
2024-01-24T06:54:12.939Z,3.80
2024-01-24T06:55:13.061Z,3.84
2024-01-24T06:56:12.930Z,3.87
2024-01-24T06:57:12.769Z,3.86
2024-01-24T06:58:12.848Z,3.86
2024-01-24T06:59:12.871Z,3.90
2024-01-24T07:00:12.859Z,3.90
2024-01-24T07:01:12.906Z,3.94
2024-01-24T07:02:12.845Z,3.96
2024-01-24T07:03:12.838Z,3.98
2024-01-24T07:04:12.956Z,4.02
2024-01-24T07:05:12.874Z,4.05
2024-01-24T07:06:12.814Z,4.09
2024-01-24T07:07:12.772Z,4.14
2024-01-24T07:08:12.741Z,4.18
2024-01-24T07:09:12.791Z,4.22
2024-01-24T07:10:13.252Z,4.26
2024-01-24T07:11:12.778Z,4.29
2024-01-24T07:12:12.796Z,4.33
2024-01-24T07:13:12.700Z,4.37
2024-01-24T07:14:12.733Z,4.42
2024-01-24T07:15:12.772Z,4.48
2024-01-24T07:16:12.699Z,4.51
2024-01-24T07:17:12.660Z,4.54
2024-01-24T07:18:12.767Z,4.59
2024-01-24T07:19:12.761Z,4.62
2024-01-24T07:20:12.727Z,4.67
2024-01-24T07:21:12.658Z,4.72
2024-01-24T07:22:12.675Z,4.77
2024-01-24T07:23:12.624Z,4.82
2024-01-24T07:24:12.621Z,4.85
2024-01-24T07:25:12.693Z,4.89
2024-01-24T07:26:12.613Z,4.91
2024-01-24T07:27:12.615Z,4.96
2024-01-24T07:28:12.650Z,4.97
2024-01-24T07:29:12.672Z,4.97
2024-01-24T07:30:12.617Z,4.99
2024-01-24T07:31:12.520Z,4.97
2024-01-24T07:32:12.601Z,4.97
2024-01-24T07:33:12.657Z,4.96
2024-01-24T07:34:12.673Z,4.97
2024-01-24T07:35:12.539Z,4.96
2024-01-24T07:36:12.498Z,4.96
2024-01-24T07:37:12.486Z,4.97
2024-01-24T07:38:12.474Z,5.00
2024-01-24T07:39:12.554Z,4.99
2024-01-24T07:40:12.512Z,5.02
2024-01-24T07:41:12.452Z,5.04
2024-01-24T07:42:12.452Z,5.07
2024-01-24T07:43:12.471Z,5.09
2024-01-24T07:44:12.532Z,5.09
2024-01-24T07:45:12.418Z,5.09
2024-01-24T07:46:12.534Z,5.09
2024-01-24T07:47:12.398Z,5.09
2024-01-24T07:48:12.540Z,5.07
2024-01-24T07:49:12.621Z,5.07
2024-01-24T07:50:12.350Z,5.06
2024-01-24T07:51:12.387Z,5.06
2024-01-24T07:52:13.207Z,5.04
2024-01-24T07:53:12.326Z,5.06
2024-01-24T07:54:12.391Z,5.04
2024-01-24T07:55:13.201Z,5.06
2024-01-24T07:56:20.720Z,5.07
2024-01-24T07:57:12.349Z,5.09
2024-01-24T07:58:12.363Z,5.09
2024-01-24T07:59:12.367Z,5.12
2024-01-24T08:00:12.263Z,5.10
2024-01-24T08:01:12.360Z,5.13
2024-01-24T08:02:12.338Z,5.13
2024-01-24T08:03:12.270Z,5.17
2024-01-24T08:04:12.380Z,5.17
2024-01-24T08:05:12.270Z,5.18
2024-01-24T08:06:12.243Z,5.20
2024-01-24T08:07:12.251Z,5.22
2024-01-24T08:08:12.183Z,5.24
2024-01-24T08:09:13.271Z,5.25
2024-01-24T08:10:12.160Z,5.27
2024-01-24T08:11:12.229Z,5.31
2024-01-24T08:12:12.142Z,5.33
2024-01-24T08:13:12.161Z,5.35
2024-01-24T08:14:12.205Z,5.38
2024-01-24T08:15:12.229Z,5.39
2024-01-24T08:16:12.121Z,5.40
2024-01-24T08:17:12.197Z,5.42
2024-01-24T08:18:12.202Z,5.42
2024-01-24T08:19:12.283Z,5.43
2024-01-24T08:20:12.086Z,5.46
2024-01-24T08:21:12.086Z,5.49
2024-01-24T08:22:12.057Z,5.51
2024-01-24T08:23:12.134Z,5.53
2024-01-24T08:24:12.119Z,5.56
2024-01-24T08:25:12.078Z,5.57
2024-01-24T08:26:12.052Z,5.58
2024-01-24T08:27:12.064Z,5.60
2024-01-24T08:28:12.167Z,5.63
2024-01-24T08:29:19.039Z,5.63
2024-01-24T08:30:11.961Z,5.64
2024-01-24T08:31:11.967Z,5.65
2024-01-24T08:32:11.946Z,5.67
2024-01-24T08:33:12.208Z,5.68
2024-01-24T08:34:12.086Z,5.72
2024-01-24T08:35:11.961Z,5.75
2024-01-24T08:36:11.894Z,5.78
2024-01-24T08:37:11.960Z,5.78
2024-01-24T08:38:11.997Z,5.81
2024-01-24T08:39:13.058Z,5.82
2024-01-24T08:40:11.865Z,5.85
2024-01-24T08:41:11.897Z,5.91
2024-01-24T08:42:11.862Z,5.90
2024-01-24T08:43:11.959Z,5.96
2024-01-24T08:44:11.872Z,6.00
2024-01-24T08:45:11.829Z,6.04
2024-01-24T08:46:11.913Z,6.09
2024-01-24T08:47:11.844Z,6.15
2024-01-24T08:48:11.952Z,6.15
2024-01-24T08:49:11.948Z,6.15
2024-01-24T08:50:11.904Z,6.17
2024-01-24T08:51:11.760Z,6.18
2024-01-24T08:52:11.821Z,6.19
2024-01-24T08:53:11.879Z,6.22
2024-01-24T08:54:11.732Z,6.30
2024-01-24T08:55:11.860Z,6.31
2024-01-24T08:56:11.719Z,6.37
2024-01-24T08:57:11.731Z,6.48
2024-01-24T08:58:11.905Z,6.58
2024-01-24T08:59:11.688Z,6.66
2024-01-24T09:00:11.727Z,6.70
2024-01-24T09:01:11.753Z,6.76
2024-01-24T09:02:11.760Z,6.80
2024-01-24T09:03:11.672Z,6.85
2024-01-24T09:04:11.725Z,6.91
2024-01-24T09:05:11.719Z,6.97
2024-01-24T09:06:11.669Z,7.02
2024-01-24T09:07:11.699Z,7.07
2024-01-24T09:08:11.717Z,7.10
2024-01-24T09:09:11.622Z,7.13
2024-01-24T09:10:11.672Z,7.15
2024-01-24T09:11:11.595Z,7.17
2024-01-24T09:12:11.662Z,7.17
2024-01-24T09:13:11.641Z,7.17
2024-01-24T09:14:11.571Z,7.20
2024-01-24T09:15:11.546Z,7.24
2024-01-24T09:16:11.718Z,7.30
2024-01-24T09:17:11.997Z,7.37
2024-01-24T09:18:12.491Z,7.50
2024-01-24T09:19:11.631Z,7.61
2024-01-24T09:20:11.790Z,7.61
2024-01-24T09:21:11.556Z,7.63
2024-01-24T09:22:11.572Z,7.58
2024-01-24T09:23:11.495Z,7.58
2024-01-24T09:24:11.462Z,7.57
2024-01-24T09:25:13.163Z,7.57
2024-01-24T09:26:11.557Z,7.58
2024-01-24T09:27:11.466Z,7.60
2024-01-24T09:28:12.312Z,7.60
2024-01-24T09:29:11.424Z,7.63
2024-01-24T09:30:11.584Z,7.64
2024-01-24T09:31:11.500Z,7.68
2024-01-24T09:32:11.400Z,7.69
2024-01-24T09:33:11.580Z,7.75
2024-01-24T09:34:11.518Z,7.79
2024-01-24T09:35:11.978Z,7.83
2024-01-24T09:36:11.400Z,7.86
2024-01-24T09:37:11.338Z,7.90
2024-01-24T09:38:11.356Z,8.01
2024-01-24T09:39:11.295Z,8.10
2024-01-24T09:40:11.600Z,8.12
2024-01-24T09:41:11.421Z,8.10
2024-01-24T09:42:11.288Z,8.05
2024-01-24T09:43:11.311Z,8.02
2024-01-24T09:44:11.277Z,8.00
2024-01-24T09:45:11.322Z,8.00
2024-01-24T09:46:11.339Z,8.00
2024-01-24T09:47:11.228Z,8.00
2024-01-24T09:48:11.380Z,8.00
2024-01-24T09:49:11.457Z,8.00
2024-01-24T09:50:11.161Z,7.98
2024-01-24T09:51:11.290Z,7.97
2024-01-24T09:52:11.231Z,8.00
2024-01-24T09:53:11.167Z,7.98
2024-01-24T09:54:11.246Z,7.98
2024-01-24T09:55:11.578Z,7.95
2024-01-24T09:56:11.233Z,7.95
2024-01-24T09:57:11.189Z,7.93
2024-01-24T09:58:11.961Z,7.93
2024-01-24T09:59:11.181Z,7.92
2024-01-24T10:00:11.229Z,7.90
2024-01-24T10:01:11.180Z,7.90
2024-01-24T10:02:11.112Z,7.90
2024-01-24T10:03:11.092Z,7.89
2024-01-24T10:04:11.293Z,7.87
2024-01-24T10:05:11.100Z,7.89
2024-01-24T10:06:11.374Z,7.89
2024-01-24T10:07:11.107Z,7.89
2024-01-24T10:08:10.983Z,7.86
2024-01-24T10:09:11.152Z,7.87
2024-01-24T10:10:11.230Z,7.87
2024-01-24T10:11:11.052Z,7.90
2024-01-24T10:12:11.020Z,7.90
2024-01-24T10:13:11.101Z,7.92
2024-01-24T10:14:11.069Z,7.93
2024-01-24T10:15:11.001Z,7.95
2024-01-24T10:16:11.012Z,7.98
2024-01-24T10:17:10.969Z,8.01
2024-01-24T10:18:11.032Z,8.02
2024-01-24T10:19:11.095Z,8.02
2024-01-24T10:20:10.910Z,8.02
2024-01-24T10:21:10.890Z,8.02
2024-01-24T10:22:11.368Z,8.01
2024-01-24T10:23:10.904Z,8.02
2024-01-24T10:24:11.047Z,8.01
2024-01-24T10:25:11.039Z,8.01
2024-01-24T10:26:10.960Z,8.01
2024-01-24T10:27:10.843Z,8.01
2024-01-24T10:28:11.048Z,8.02
2024-01-24T10:29:10.806Z,8.04
2024-01-24T10:30:10.847Z,8.04
2024-01-24T10:31:10.865Z,8.04
2024-01-24T10:32:10.791Z,8.04
2024-01-24T10:33:10.966Z,8.02
2024-01-24T10:34:12.138Z,8.04
2024-01-24T10:35:11.002Z,8.07
2024-01-24T10:36:17.968Z,8.07
2024-01-24T10:37:10.805Z,8.10
2024-01-24T10:38:10.842Z,8.10
2024-01-24T10:39:10.718Z,8.11
2024-01-24T10:40:10.847Z,8.12
2024-01-24T10:41:10.699Z,8.15
2024-01-24T10:42:12.409Z,8.16
2024-01-24T10:43:10.922Z,8.16
2024-01-24T10:44:10.947Z,8.19
2024-01-24T10:45:10.715Z,8.19
2024-01-24T10:46:10.772Z,8.19
2024-01-24T10:47:10.721Z,8.20
2024-01-24T10:48:10.707Z,8.20
2024-01-24T10:49:10.785Z,8.20
2024-01-24T10:50:10.877Z,8.20
2024-01-24T10:51:10.628Z,8.22
2024-01-24T10:52:10.822Z,8.19
2024-01-24T10:53:10.616Z,8.20
2024-01-24T10:54:10.622Z,8.19
2024-01-24T10:55:10.654Z,8.19
2024-01-24T10:56:10.608Z,8.19
2024-01-24T10:57:10.638Z,8.19
2024-01-24T10:58:10.661Z,8.19
2024-01-24T10:59:10.535Z,8.19
2024-01-24T11:00:10.548Z,8.20
2024-01-24T11:01:10.697Z,8.20
2024-01-24T11:02:10.648Z,8.23
2024-01-24T11:03:10.589Z,8.23
2024-01-24T11:04:10.651Z,8.23
2024-01-24T11:05:10.542Z,8.25
2024-01-24T11:06:10.537Z,8.23
2024-01-24T11:07:10.510Z,8.25
2024-01-24T11:08:10.440Z,8.26
2024-01-24T11:09:10.426Z,8.26
2024-01-24T11:10:10.891Z,8.23
2024-01-24T11:11:10.521Z,8.25
2024-01-24T11:12:10.455Z,8.26
2024-01-24T11:13:10.495Z,8.30
2024-01-24T11:14:10.440Z,8.34
2024-01-24T11:15:10.426Z,8.38
2024-01-24T11:16:10.671Z,8.37
2024-01-24T11:17:10.370Z,8.38
2024-01-24T11:18:10.464Z,8.40
2024-01-24T11:19:10.414Z,8.40
2024-01-24T11:20:10.402Z,8.40
2024-01-24T11:21:10.456Z,8.41
2024-01-24T11:22:16.751Z,8.43
2024-01-24T11:23:10.393Z,8.43
2024-01-24T11:24:10.299Z,8.47
2024-01-24T11:25:10.370Z,8.48
2024-01-24T11:26:10.356Z,8.48
2024-01-24T11:27:10.270Z,8.53
2024-01-24T11:28:10.292Z,8.55
2024-01-24T11:29:12.856Z,8.58
2024-01-24T11:30:10.370Z,8.62
2024-01-24T11:31:10.364Z,8.65
2024-01-24T11:32:13.506Z,8.70
2024-01-24T11:33:10.260Z,8.76
2024-01-24T11:34:10.807Z,8.81
2024-01-24T11:35:10.242Z,8.91
2024-01-24T11:36:10.168Z,8.94
2024-01-24T11:37:10.232Z,8.99
2024-01-24T11:38:19.941Z,9.15
2024-01-24T11:39:10.150Z,9.51
2024-01-24T11:40:10.264Z,9.93
2024-01-24T11:41:10.183Z,10.09
2024-01-24T11:42:10.132Z,10.33
2024-01-24T11:43:10.231Z,10.29
2024-01-24T11:44:10.118Z,10.15
2024-01-24T11:45:10.192Z,10.05
2024-01-24T11:46:11.065Z,9.93
2024-01-24T11:47:10.063Z,9.86
2024-01-24T11:48:10.219Z,9.76
2024-01-24T11:49:10.123Z,9.74
2024-01-24T11:50:10.139Z,9.81
2024-01-24T11:51:10.111Z,9.84
2024-01-24T11:52:10.056Z,9.91
2024-01-24T11:53:10.033Z,10.02
2024-01-24T11:54:10.025Z,10.15
2024-01-24T11:55:10.142Z,10.15
2024-01-24T11:56:10.000Z,10.11
2024-01-24T11:57:10.032Z,10.18
2024-01-24T11:58:10.067Z,10.55
2024-01-24T11:59:10.088Z,10.88
2024-01-24T12:00:10.061Z,11.10
2024-01-24T12:01:10.077Z,11.58
2024-01-24T12:02:10.010Z,12.17
2024-01-24T12:03:09.989Z,12.59
2024-01-24T12:04:10.086Z,13.04
2024-01-24T12:05:09.986Z,13.41
2024-01-24T12:06:09.981Z,13.62
2024-01-24T12:07:10.080Z,13.78
2024-01-24T12:08:09.937Z,14.21
2024-01-24T12:09:09.883Z,14.84
2024-01-24T12:10:09.993Z,14.92
2024-01-24T12:11:09.834Z,14.75
2024-01-24T12:12:09.918Z,14.65
2024-01-24T12:13:09.934Z,14.81
2024-01-24T12:14:09.880Z,15.87
2024-01-24T12:15:09.789Z,17.21
2024-01-24T12:16:10.017Z,18.26
2024-01-24T12:17:09.825Z,19.16
2024-01-24T12:18:10.025Z,19.13
2024-01-24T12:19:09.994Z,18.60
2024-01-24T12:20:10.758Z,18.69
2024-01-24T12:21:09.887Z,19.13
2024-01-24T12:22:09.911Z,19.37
2024-01-24T12:23:09.816Z,19.83
2024-01-24T12:24:09.766Z,19.88
2024-01-24T12:25:09.866Z,20.16
2024-01-24T12:26:09.826Z,20.62
2024-01-24T12:27:09.770Z,20.70
2024-01-24T12:28:09.829Z,20.73
2024-01-24T12:29:09.701Z,19.33
2024-01-24T12:30:11.258Z,18.52
2024-01-24T12:31:09.661Z,17.68
2024-01-24T12:32:09.660Z,17.03
2024-01-24T12:33:09.905Z,16.64
2024-01-24T12:34:09.682Z,16.42
2024-01-24T12:35:09.713Z,16.35
2024-01-24T12:36:09.699Z,16.38
2024-01-24T12:37:09.679Z,16.45
2024-01-24T12:38:09.683Z,17.44
2024-01-24T12:39:09.591Z,17.77
2024-01-24T12:40:09.617Z,17.81
2024-01-24T12:41:09.604Z,17.59
2024-01-24T12:42:09.716Z,17.33
2024-01-24T12:43:09.661Z,17.16
2024-01-24T12:44:09.560Z,17.04
2024-01-24T12:45:09.572Z,17.00
2024-01-24T12:46:10.589Z,16.88
2024-01-24T12:47:09.770Z,16.71
2024-01-24T12:48:09.570Z,16.60
2024-01-24T12:49:09.571Z,16.52
2024-01-24T12:50:09.634Z,16.43
2024-01-24T12:51:09.513Z,16.25
2024-01-24T12:52:09.620Z,16.14
2024-01-24T12:53:09.455Z,16.07
2024-01-24T12:54:09.468Z,16.01
2024-01-24T12:55:09.468Z,15.96
2024-01-24T12:56:09.510Z,15.89
2024-01-24T12:57:09.491Z,15.86
2024-01-24T12:58:09.471Z,15.82
2024-01-24T12:59:09.505Z,15.78
2024-01-24T13:00:09.367Z,15.76
2024-01-24T13:01:09.556Z,15.74
2024-01-24T13:02:09.433Z,15.72
2024-01-24T13:03:09.390Z,15.71
2024-01-24T13:04:09.593Z,15.69
2024-01-24T13:05:09.548Z,15.67
2024-01-24T13:06:09.587Z,15.68
2024-01-24T13:07:09.380Z,15.69
2024-01-24T13:08:09.238Z,15.71
2024-01-24T13:09:09.241Z,15.72
2024-01-24T13:10:09.415Z,15.72
2024-01-24T13:11:09.354Z,15.71
2024-01-24T13:12:09.363Z,15.72
2024-01-24T13:13:09.331Z,15.72
2024-01-24T13:14:09.284Z,15.68
2024-01-24T13:15:09.256Z,15.69